createdAt,value
2019-02-26T00:02:17.305Z,70.60
2019-02-26T00:07:23.493Z,66.10
2019-02-26T00:12:26.278Z,67.90
2019-02-26T00:17:27.700Z,68.20
2019-02-26T00:22:29.983Z,54.10
2019-02-26T00:27:35.026Z,57.97
2019-02-26T00:32:38.362Z,67.80
2019-02-26T00:37:40.624Z,68.27
2019-02-26T00:42:42.213Z,67.63
2019-02-26T00:47:46.152Z,63.33
2019-02-26T00:52:47.223Z,66.17
2019-02-26T00:57:48.781Z,64.10
2019-02-26T01:02:50.343Z,63.33
2019-02-26T01:07:54.220Z,67.60
2019-02-26T01:12:56.483Z,79.37
2019-02-26T01:18:01.439Z,75.37
2019-02-26T01:23:03.751Z,59.53
2019-02-26T01:28:05.299Z,66.33
2019-02-26T01:33:08.057Z,50.10
2019-02-26T01:38:12.065Z,57.60
2019-02-26T01:43:14.028Z,49.90
2019-02-26T01:48:18.392Z,55.70
2019-02-26T01:53:19.809Z,47.23
2019-02-26T01:58:22.541Z,55.40
2019-02-26T02:03:25.516Z,50.20
2019-02-26T02:08:27.589Z,39.63
2019-02-26T02:13:30.581Z,48.53
2019-02-26T02:18:32.731Z,44.03
2019-02-26T02:23:34.341Z,42.53
2019-02-26T02:28:35.880Z,54.10
2019-02-26T02:33:37.647Z,48.60
2019-02-26T02:38:39.400Z,59.97
2019-02-26T02:43:40.945Z,49.50
2019-02-26T02:48:42.487Z,46.50
2019-02-26T02:53:45.241Z,48.07
2019-02-26T02:58:49.487Z,55.90
2019-02-26T03:03:53.125Z,55.30
2019-02-26T03:08:54.467Z,52.20
2019-02-26T03:13:56.096Z,51.63
2019-02-26T03:18:57.662Z,54.17
2019-02-26T03:24:02.841Z,44.83
2019-02-26T03:29:03.725Z,56.87
2019-02-26T03:34:10.571Z,49.63
2019-02-26T03:39:08.829Z,47.43
2019-02-26T03:44:10.495Z,49.70
2019-02-26T03:49:12.107Z,56.87
2019-02-26T03:54:13.659Z,48.93
2019-02-26T03:59:15.214Z,50.03
2019-02-26T04:04:16.752Z,55.80
2019-02-26T04:09:19.618Z,44.50
2019-02-26T04:14:22.914Z,47.87
2019-02-26T04:19:26.854Z,56.63
2019-02-26T04:24:29.897Z,46.77
2019-02-26T04:29:36.093Z,46.20
2019-02-26T04:34:43.942Z,48.77
2019-02-26T04:40:05.389Z,46.60
2019-02-26T04:45:26.484Z,51.30
2019-02-26T04:50:29.571Z,53.87
2019-02-26T04:55:35.346Z,46.53
2019-02-26T05:00:36.571Z,63.87
2019-02-26T05:05:38.832Z,50.03
2019-02-26T05:10:40.384Z,52.60
2019-02-26T05:15:43.469Z,55.90
2019-02-26T05:20:48.511Z,49.27
2019-02-26T05:25:48.877Z,57.40
2019-02-26T05:30:51.395Z,46.60
2019-02-26T05:35:52.971Z,47.43
2019-02-26T05:40:55.798Z,48.70
2019-02-26T05:46:00.609Z,53.83
2019-02-26T05:51:03.605Z,50.37
2019-02-26T05:56:05.603Z,60.07
2019-02-26T06:01:07.160Z,48.80
2019-02-26T06:06:08.719Z,50.47
2019-02-26T06:11:10.411Z,51.07
2019-02-26T06:16:12.028Z,61.13
2019-02-26T06:21:15.797Z,59.17
2019-02-26T06:26:17.854Z,54.87
2019-02-26T06:31:21.947Z,51.40
2019-02-26T06:36:25.880Z,64.93
2019-02-26T06:41:41.561Z,53.17
2019-02-26T06:46:43.059Z,66.50
2019-02-26T06:51:45.165Z,65.43
2019-02-26T06:56:49.099Z,70.20
2019-02-26T07:01:55.560Z,66.20
2019-02-26T07:06:57.186Z,67.00
2019-02-26T07:11:58.504Z,70.93
2019-02-26T07:17:00.122Z,67.77
2019-02-26T07:22:01.679Z,66.10
2019-02-26T07:27:04.298Z,78.33
2019-02-26T07:32:06.833Z,69.23
2019-02-26T07:37:09.340Z,78.90
2019-02-26T07:42:14.006Z,73.90
2019-02-26T07:47:15.350Z,65.43
2019-02-26T07:52:16.907Z,79.13
2019-02-26T07:57:20.589Z,72.80
2019-02-26T08:02:21.944Z,75.80
2019-02-26T08:07:24.384Z,78.33
2019-02-26T08:12:27.025Z,61.40
2019-02-26T08:17:28.655Z,94.90
2019-02-26T08:22:32.355Z,81.03
2019-02-26T08:27:35.557Z,89.30
2019-02-26T08:32:39.140Z,93.13
2019-02-26T08:37:40.971Z,97.37
2019-02-26T08:42:43.531Z,90.70
2019-02-26T08:47:45.095Z,108.30
2019-02-26T08:52:49.920Z,101.43
2019-02-26T08:57:51.988Z,99.10
2019-02-26T09:02:56.445Z,107.47
2019-02-26T09:07:57.349Z,99.23
2019-02-26T09:12:58.935Z,117.50
2019-02-26T09:18:00.548Z,99.47
2019-02-26T09:23:02.213Z,106.23
2019-02-26T09:28:03.876Z,98.03
2019-02-26T09:33:06.357Z,107.93
2019-02-26T09:38:09.038Z,112.80
2019-02-26T09:43:12.902Z,107.27
2019-02-26T09:48:16.596Z,111.13
2019-02-26T09:53:17.983Z,95.17
2019-02-26T09:58:21.048Z,102.20
2019-02-26T10:03:23.072Z,95.47
2019-02-26T10:08:25.397Z,113.23
2019-02-26T10:13:28.290Z,96.17
2019-02-26T10:18:32.804Z,86.80
2019-02-26T10:23:34.359Z,92.30
2019-02-26T10:28:39.421Z,75.20
2019-02-26T10:33:41.160Z,90.23
2019-02-26T10:38:42.859Z,95.20
2019-02-26T10:43:44.735Z,80.33
2019-02-26T10:48:47.966Z,91.33
2019-02-26T10:53:49.801Z,88.60
2019-02-26T10:58:54.735Z,77.23
2019-02-26T11:03:55.243Z,84.60
2019-02-26T11:09:01.064Z,74.67
2019-02-26T11:14:02.728Z,84.97
2019-02-26T11:19:07.526Z,95.67
2019-02-26T11:24:11.117Z,103.90
2019-02-26T11:29:12.499Z,85.90
2019-02-26T11:34:14.044Z,99.10
2019-02-26T11:39:16.538Z,89.63
2019-02-26T11:44:20.571Z,91.60
2019-02-26T11:49:21.951Z,83.17
2019-02-26T11:54:23.520Z,107.83
2019-02-26T11:59:25.071Z,95.63
2019-02-26T12:04:26.743Z,85.13
2019-02-26T12:09:32.410Z,112.07
2019-02-26T12:14:34.699Z,80.40
2019-02-26T12:19:37.186Z,78.87
2019-02-26T12:24:38.882Z,81.07
2019-02-26T12:29:42.674Z,80.63
2019-02-26T12:34:45.416Z,81.50
2019-02-26T12:39:49.931Z,85.00
2019-02-26T12:44:50.896Z,82.60
2019-02-26T12:49:52.485Z,78.33
2019-02-26T12:54:55.012Z,88.17
2019-02-26T12:59:57.476Z,66.00
2019-02-26T13:04:59.034Z,83.27
2019-02-26T13:10:03.609Z,68.33
2019-02-26T13:15:19.014Z,78.73
2019-02-26T13:20:25.518Z,67.20
2019-02-26T13:25:27.192Z,153.37
2019-02-26T13:30:28.861Z,72.90
2019-02-26T13:35:30.417Z,65.70
2019-02-26T13:40:38.230Z,60.13
2019-02-26T13:45:35.925Z,57.07
2019-02-26T13:50:39.108Z,60.87
2019-02-26T13:55:40.924Z,62.97
2019-02-26T14:00:42.576Z,58.67
2019-02-26T14:05:44.340Z,63.33
2019-02-26T14:10:46.000Z,70.67
2019-02-26T14:15:47.755Z,68.30
2019-02-26T14:20:49.448Z,65.67
2019-02-26T14:25:51.039Z,65.83
2019-02-26T14:30:52.599Z,61.27
2019-02-26T14:35:54.184Z,65.27
2019-02-26T14:40:55.752Z,67.17
2019-02-26T14:45:57.308Z,73.97
2019-02-26T14:50:59.872Z,79.90
2019-02-26T14:56:01.477Z,67.13
2019-02-26T15:01:03.995Z,76.03
2019-02-26T15:06:05.798Z,84.90
2019-02-26T15:11:07.493Z,77.10
2019-02-26T15:16:09.088Z,86.53
2019-02-26T15:21:10.763Z,85.13
2019-02-26T15:26:12.363Z,63.83
2019-02-26T15:31:14.144Z,63.80
2019-02-26T15:36:15.705Z,68.60
2019-02-26T15:41:17.384Z,60.03
2019-02-26T15:46:20.569Z,64.33
2019-02-26T15:51:23.528Z,55.90
2019-02-26T15:56:29.563Z,49.20
2019-02-26T16:01:29.967Z,46.03
2019-02-26T16:06:31.687Z,40.60
2019-02-26T16:11:34.642Z,49.40
2019-02-26T16:16:37.625Z,61.57
2019-02-26T16:21:39.598Z,60.83
2019-02-26T16:26:43.064Z,57.10
2019-02-26T16:31:45.624Z,65.50
2019-02-26T16:36:49.551Z,54.63
2019-02-26T16:41:51.135Z,63.83
2019-02-26T16:46:52.952Z,57.67
2019-02-26T16:51:56.793Z,59.77
2019-02-26T16:56:58.671Z,65.50
2019-02-26T17:02:01.912Z,61.57
2019-02-26T17:07:04.214Z,66.43
2019-02-26T17:12:06.122Z,59.90
2019-02-26T17:17:10.166Z,77.00
2019-02-26T17:22:11.868Z,66.30
2019-02-26T17:27:14.998Z,72.57
2019-02-26T17:32:17.728Z,76.10
2019-02-26T17:37:21.288Z,69.83
2019-02-26T17:42:23.731Z,69.33
2019-02-26T17:47:25.605Z,66.37
2019-02-26T17:52:29.271Z,73.33
2019-02-26T17:57:34.634Z,74.30
2019-02-26T18:02:35.560Z,71.20
2019-02-26T18:07:38.589Z,71.10
2019-02-26T18:12:42.667Z,91.77
2019-02-26T18:17:45.147Z,75.93
2019-02-26T18:22:46.883Z,81.17
2019-02-26T18:27:49.885Z,77.03
2019-02-26T18:32:57.426Z,84.80
2019-02-26T18:37:56.824Z,89.93
2019-02-26T18:42:58.524Z,102.57
2019-02-26T18:48:00.380Z,103.70
2019-02-26T18:53:05.276Z,92.53
2019-02-26T18:58:07.071Z,90.00
2019-02-26T19:03:09.519Z,81.97
2019-02-26T19:08:11.293Z,78.30
2019-02-26T19:13:12.928Z,88.53
2019-02-26T19:18:14.672Z,85.50
2019-02-26T19:23:16.560Z,88.73
2019-02-26T19:28:18.471Z,90.07
2019-02-26T19:33:21.742Z,85.60
2019-02-26T19:38:27.249Z,97.30
2019-02-26T19:43:28.832Z,94.47
2019-02-26T19:48:32.201Z,93.10
2019-02-26T19:53:35.183Z,106.13
2019-02-26T19:58:40.616Z,97.93
2019-02-26T20:03:40.915Z,82.03
2019-02-26T20:08:42.562Z,102.60
2019-02-26T20:13:44.158Z,95.93
2019-02-26T20:18:45.724Z,109.13
2019-02-26T20:23:47.394Z,101.93
2019-02-26T20:28:48.945Z,112.03
2019-02-26T20:33:50.503Z,111.43
2019-02-26T20:38:52.059Z,121.03
2019-02-26T20:43:53.621Z,112.80
2019-02-26T20:48:55.172Z,144.07
2019-02-26T20:53:56.768Z,175.50
2019-02-26T20:58:58.330Z,194.77
2019-02-26T21:03:59.925Z,203.57
2019-02-26T21:09:06.561Z,216.13
2019-02-26T21:14:07.868Z,223.27
2019-02-26T21:19:10.842Z,217.50
2019-02-26T21:24:14.467Z,205.10
2019-02-26T21:29:17.925Z,202.60
2019-02-26T21:34:21.427Z,207.93
2019-02-26T21:39:24.881Z,195.10
2019-02-26T21:44:28.331Z,218.27
2019-02-26T21:49:31.800Z,208.30
2019-02-26T21:54:35.256Z,199.60
2019-02-26T21:59:38.752Z,203.83
2019-02-26T22:04:42.199Z,195.83
2019-02-26T22:09:43.862Z,194.63
2019-02-26T22:14:45.760Z,199.67
2019-02-26T22:19:47.516Z,207.60
2019-02-26T22:24:49.158Z,219.43
2019-02-26T22:29:50.708Z,215.13
2019-02-26T22:34:53.585Z,224.63
2019-02-26T22:39:58.633Z,205.47
2019-02-26T22:45:00.229Z,179.53
2019-02-26T22:50:03.194Z,174.17
2019-02-26T22:55:08.751Z,197.60
2019-02-26T23:00:49.827Z,204.57
2019-02-26T23:05:53.381Z,215.30
2019-02-26T23:10:57.513Z,243.53
2019-02-26T23:15:59.959Z,232.50
2019-02-26T23:21:01.808Z,243.13
2019-02-26T23:26:04.139Z,245.63
2019-02-26T23:31:06.903Z,231.03
2019-02-26T23:36:08.896Z,221.60
2019-02-26T23:41:10.448Z,221.20
2019-02-26T23:46:12.303Z,216.60
2019-02-26T23:51:13.888Z,209.60
2019-02-26T23:56:16.781Z,198.83
